sensor_id;sensor_type;location;lat;lon;timestamp;P1;durP1;ratioP1;P2;durP2;ratioP2
41233;SDS011;26968;42.686;23.352;2024-01-16T00:00:33;27.23;;;11.93;;
41233;SDS011;26968;42.686;23.352;2024-01-16T00:02:59;26.98;;;12.10;;
41233;SDS011;26968;42.686;23.352;2024-01-16T00:05:25;25.00;;;11.57;;
41233;SDS011;26968;42.686;23.352;2024-01-16T00:07:50;28.02;;;11.82;;
41233;SDS011;26968;42.686;23.352;2024-01-16T00:10:16;22.60;;;11.32;;
41233;SDS011;26968;42.686;23.352;2024-01-16T00:12:41;26.50;;;11.88;;
41233;SDS011;26968;42.686;23.352;2024-01-16T00:15:07;27.30;;;11.95;;
41233;SDS011;26968;42.686;23.352;2024-01-16T00:17:34;24.17;;;12.02;;
41233;SDS011;26968;42.686;23.352;2024-01-16T00:20:01;28.83;;;11.70;;
41233;SDS011;26968;42.686;23.352;2024-01-16T00:22:29;28.85;;;12.02;;
41233;SDS011;26968;42.686;23.352;2024-01-16T00:24:54;25.58;;;12.18;;
41233;SDS011;26968;42.686;23.352;2024-01-16T00:27:20;31.42;;;13.50;;
41233;SDS011;26968;42.686;23.352;2024-01-16T00:29:46;31.73;;;12.77;;
41233;SDS011;26968;42.686;23.352;2024-01-16T00:32:11;26.85;;;12.85;;
41233;SDS011;26968;42.686;23.352;2024-01-16T00:34:41;27.98;;;13.02;;
41233;SDS011;26968;42.686;23.352;2024-01-16T00:37:07;29.38;;;12.85;;
41233;SDS011;26968;42.686;23.352;2024-01-16T00:39:32;29.42;;;13.10;;
41233;SDS011;26968;42.686;23.352;2024-01-16T00:41:58;25.25;;;11.88;;
41233;SDS011;26968;42.686;23.352;2024-01-16T00:44:24;27.60;;;13.48;;
41233;SDS011;26968;42.686;23.352;2024-01-16T00:46:49;34.40;;;13.13;;
41233;SDS011;26968;42.686;23.352;2024-01-16T00:49:15;26.55;;;13.38;;
41233;SDS011;26968;42.686;23.352;2024-01-16T00:51:41;28.10;;;14.07;;
41233;SDS011;26968;42.686;23.352;2024-01-16T00:54:06;30.67;;;14.07;;
41233;SDS011;26968;42.686;23.352;2024-01-16T00:56:33;27.05;;;12.98;;
41233;SDS011;26968;42.686;23.352;2024-01-16T00:59:00;27.70;;;13.32;;
41233;SDS011;26968;42.686;23.352;2024-01-16T01:01:26;35.05;;;14.95;;
41233;SDS011;26968;42.686;23.352;2024-01-16T01:03:51;27.52;;;13.18;;
41233;SDS011;26968;42.686;23.352;2024-01-16T01:06:17;27.88;;;14.40;;
41233;SDS011;26968;42.686;23.352;2024-01-16T01:08:43;31.05;;;15.20;;
41233;SDS011;26968;42.686;23.352;2024-01-16T01:11:08;31.42;;;14.23;;
41233;SDS011;26968;42.686;23.352;2024-01-16T01:13:34;28.23;;;12.85;;
41233;SDS011;26968;42.686;23.352;2024-01-16T01:15:59;29.98;;;13.00;;
41233;SDS011;26968;42.686;23.352;2024-01-16T01:18:25;30.35;;;13.48;;
41233;SDS011;26968;42.686;23.352;2024-01-16T01:20:51;33.33;;;14.25;;
41233;SDS011;26968;42.686;23.352;2024-01-16T01:23:17;27.48;;;14.30;;
41233;SDS011;26968;42.686;23.352;2024-01-16T01:25:42;32.95;;;13.77;;
41233;SDS011;26968;42.686;23.352;2024-01-16T01:28:08;29.88;;;13.10;;
41233;SDS011;26968;42.686;23.352;2024-01-16T01:30:34;25.80;;;12.63;;
41233;SDS011;26968;42.686;23.352;2024-01-16T01:32:59;27.42;;;13.00;;
41233;SDS011;26968;42.686;23.352;2024-01-16T01:35:25;31.60;;;13.30;;
41233;SDS011;26968;42.686;23.352;2024-01-16T01:37:50;25.42;;;12.85;;
41233;SDS011;26968;42.686;23.352;2024-01-16T01:40:16;24.75;;;12.68;;
41233;SDS011;26968;42.686;23.352;2024-01-16T01:42:42;25.05;;;12.23;;
41233;SDS011;26968;42.686;23.352;2024-01-16T01:45:10;26.80;;;11.75;;
41233;SDS011;26968;42.686;23.352;2024-01-16T01:47:37;29.67;;;12.77;;
41233;SDS011;26968;42.686;23.352;2024-01-16T01:50:04;27.40;;;13.30;;
41233;SDS011;26968;42.686;23.352;2024-01-16T01:52:31;27.48;;;12.13;;
41233;SDS011;26968;42.686;23.352;2024-01-16T01:54:57;28.52;;;13.68;;
41233;SDS011;26968;42.686;23.352;2024-01-16T01:57:23;27.63;;;14.05;;
41233;SDS011;26968;42.686;23.352;2024-01-16T01:59:50;30.13;;;13.40;;
41233;SDS011;26968;42.686;23.352;2024-01-16T02:02:16;30.77;;;13.60;;
41233;SDS011;26968;42.686;23.352;2024-01-16T02:04:42;36.28;;;12.80;;
41233;SDS011;26968;42.686;23.352;2024-01-16T02:07:09;29.95;;;12.60;;
41233;SDS011;26968;42.686;23.352;2024-01-16T02:09:35;25.10;;;11.68;;
41233;SDS011;26968;42.686;23.352;2024-01-16T02:12:01;25.77;;;12.93;;
41233;SDS011;26968;42.686;23.352;2024-01-16T02:14:27;26.10;;;12.07;;
41233;SDS011;26968;42.686;23.352;2024-01-16T02:16:53;27.35;;;12.95;;
41233;SDS011;26968;42.686;23.352;2024-01-16T02:19:18;28.83;;;12.68;;
41233;SDS011;26968;42.686;23.352;2024-01-16T02:21:47;30.17;;;12.75;;
41233;SDS011;26968;42.686;23.352;2024-01-16T02:24:14;26.92;;;13.20;;
41233;SDS011;26968;42.686;23.352;2024-01-16T02:26:41;30.88;;;12.52;;
41233;SDS011;26968;42.686;23.352;2024-01-16T02:29:07;24.00;;;12.05;;
41233;SDS011;26968;42.686;23.352;2024-01-16T02:31:33;26.42;;;11.63;;
41233;SDS011;26968;42.686;23.352;2024-01-16T02:33:59;27.17;;;12.57;;
41233;SDS011;26968;42.686;23.352;2024-01-16T02:36:26;21.83;;;11.63;;
41233;SDS011;26968;42.686;23.352;2024-01-16T02:38:52;24.65;;;11.60;;
41233;SDS011;26968;42.686;23.352;2024-01-16T02:41:18;23.20;;;11.98;;
41233;SDS011;26968;42.686;23.352;2024-01-16T02:43:43;24.85;;;11.27;;
41233;SDS011;26968;42.686;23.352;2024-01-16T02:46:09;23.45;;;10.93;;
41233;SDS011;26968;42.686;23.352;2024-01-16T02:48:35;24.90;;;12.18;;
41233;SDS011;26968;42.686;23.352;2024-01-16T02:51:01;24.30;;;10.93;;
41233;SDS011;26968;42.686;23.352;2024-01-16T02:53:28;25.88;;;11.40;;
41233;SDS011;26968;42.686;23.352;2024-01-16T02:55:54;28.35;;;12.80;;
41233;SDS011;26968;42.686;23.352;2024-01-16T02:58:20;23.83;;;11.10;;
41233;SDS011;26968;42.686;23.352;2024-01-16T03:00:48;27.02;;;13.63;;
41233;SDS011;26968;42.686;23.352;2024-01-16T03:03:14;27.70;;;12.93;;
41233;SDS011;26968;42.686;23.352;2024-01-16T03:05:40;27.60;;;11.32;;
41233;SDS011;26968;42.686;23.352;2024-01-16T03:08:06;25.75;;;11.57;;
41233;SDS011;26968;42.686;23.352;2024-01-16T03:10:32;28.15;;;13.13;;
41233;SDS011;26968;42.686;23.352;2024-01-16T03:12:58;27.20;;;10.60;;
41233;SDS011;26968;42.686;23.352;2024-01-16T03:15:23;21.95;;;11.32;;
41233;SDS011;26968;42.686;23.352;2024-01-16T03:17:49;27.30;;;12.90;;
41233;SDS011;26968;42.686;23.352;2024-01-16T03:20:17;16.65;;;8.60;;
41233;SDS011;26968;42.686;23.352;2024-01-16T03:22:47;20.35;;;7.55;;
41233;SDS011;26968;42.686;23.352;2024-01-16T03:25:14;11.93;;;6.40;;
41233;SDS011;26968;42.686;23.352;2024-01-16T03:27:39;9.68;;;5.93;;
41233;SDS011;26968;42.686;23.352;2024-01-16T03:30:05;7.18;;;5.15;;
41233;SDS011;26968;42.686;23.352;2024-01-16T03:32:33;11.13;;;5.57;;
41233;SDS011;26968;42.686;23.352;2024-01-16T03:34:59;10.98;;;5.70;;
41233;SDS011;26968;42.686;23.352;2024-01-16T03:37:25;9.90;;;6.85;;
41233;SDS011;26968;42.686;23.352;2024-01-16T03:39:50;10.93;;;6.25;;
41233;SDS011;26968;42.686;23.352;2024-01-16T03:42:16;10.57;;;6.97;;
41233;SDS011;26968;42.686;23.352;2024-01-16T03:44:41;11.95;;;6.60;;
41233;SDS011;26968;42.686;23.352;2024-01-16T03:47:07;9.88;;;5.53;;
41233;SDS011;26968;42.686;23.352;2024-01-16T03:49:33;8.85;;;5.85;;
41233;SDS011;26968;42.686;23.352;2024-01-16T03:52:00;8.98;;;5.35;;
41233;SDS011;26968;42.686;23.352;2024-01-16T03:54:25;9.95;;;5.65;;
41233;SDS011;26968;42.686;23.352;2024-01-16T03:56:53;8.73;;;5.30;;
41233;SDS011;26968;42.686;23.352;2024-01-16T03:59:19;8.00;;;5.35;;
41233;SDS011;26968;42.686;23.352;2024-01-16T04:01:44;8.38;;;5.20;;
41233;SDS011;26968;42.686;23.352;2024-01-16T04:04:10;7.60;;;5.25;;
41233;SDS011;26968;42.686;23.352;2024-01-16T04:06:36;6.13;;;4.45;;
41233;SDS011;26968;42.686;23.352;2024-01-16T04:09:02;7.30;;;4.45;;
41233;SDS011;26968;42.686;23.352;2024-01-16T04:11:29;6.40;;;4.35;;
41233;SDS011;26968;42.686;23.352;2024-01-16T04:13:55;6.65;;;4.05;;
41233;SDS011;26968;42.686;23.352;2024-01-16T04:16:21;5.47;;;4.05;;
41233;SDS011;26968;42.686;23.352;2024-01-16T04:18:47;7.60;;;3.80;;
41233;SDS011;26968;42.686;23.352;2024-01-16T04:21:12;5.40;;;3.72;;
41233;SDS011;26968;42.686;23.352;2024-01-16T04:23:38;6.05;;;3.67;;
41233;SDS011;26968;42.686;23.352;2024-01-16T04:26:03;6.47;;;4.20;;
41233;SDS011;26968;42.686;23.352;2024-01-16T04:28:29;4.43;;;3.15;;
41233;SDS011;26968;42.686;23.352;2024-01-16T04:30:54;6.93;;;3.40;;
41233;SDS011;26968;42.686;23.352;2024-01-16T04:33:20;5.05;;;3.53;;
41233;SDS011;26968;42.686;23.352;2024-01-16T04:35:46;3.70;;;2.60;;
41233;SDS011;26968;42.686;23.352;2024-01-16T04:38:11;3.85;;;2.78;;
41233;SDS011;26968;42.686;23.352;2024-01-16T04:40:37;5.05;;;2.95;;
41233;SDS011;26968;42.686;23.352;2024-01-16T04:43:03;2.53;;;2.30;;
41233;SDS011;26968;42.686;23.352;2024-01-16T04:45:28;5.60;;;2.63;;
41233;SDS011;26968;42.686;23.352;2024-01-16T04:47:54;3.38;;;2.58;;
41233;SDS011;26968;42.686;23.352;2024-01-16T04:50:19;2.95;;;2.47;;
41233;SDS011;26968;42.686;23.352;2024-01-16T04:52:45;3.92;;;2.47;;
41233;SDS011;26968;42.686;23.352;2024-01-16T04:55:10;3.20;;;2.50;;
41233;SDS011;26968;42.686;23.352;2024-01-16T04:57:36;3.58;;;2.35;;
41233;SDS011;26968;42.686;23.352;2024-01-16T05:00:02;3.15;;;2.30;;
41233;SDS011;26968;42.686;23.352;2024-01-16T05:02:32;7.10;;;3.40;;
41233;SDS011;26968;42.686;23.352;2024-01-16T05:04:58;5.35;;;2.50;;
41233;SDS011;26968;42.686;23.352;2024-01-16T05:07:24;4.97;;;2.85;;
41233;SDS011;26968;42.686;23.352;2024-01-16T05:09:50;3.97;;;2.30;;
41233;SDS011;26968;42.686;23.352;2024-01-16T05:12:15;3.58;;;2.75;;
41233;SDS011;26968;42.686;23.352;2024-01-16T05:14:41;3.55;;;2.80;;
41233;SDS011;26968;42.686;23.352;2024-01-16T05:17:06;3.30;;;2.42;;
41233;SDS011;26968;42.686;23.352;2024-01-16T05:19:33;2.75;;;2.15;;
41233;SDS011;26968;42.686;23.352;2024-01-16T05:21:58;3.40;;;2.30;;
41233;SDS011;26968;42.686;23.352;2024-01-16T05:24:24;4.95;;;2.45;;
41233;SDS011;26968;42.686;23.352;2024-01-16T05:26:50;2.50;;;2.30;;
41233;SDS011;26968;42.686;23.352;2024-01-16T05:29:16;6.28;;;2.72;;
41233;SDS011;26968;42.686;23.352;2024-01-16T05:31:43;4.10;;;2.80;;
41233;SDS011;26968;42.686;23.352;2024-01-16T05:34:09;4.50;;;2.65;;
41233;SDS011;26968;42.686;23.352;2024-01-16T05:36:37;2.80;;;1.95;;
41233;SDS011;26968;42.686;23.352;2024-01-16T05:39:03;3.45;;;2.60;;
41233;SDS011;26968;42.686;23.352;2024-01-16T05:41:32;4.95;;;2.72;;
41233;SDS011;26968;42.686;23.352;2024-01-16T05:43:59;3.88;;;2.85;;
41233;SDS011;26968;42.686;23.352;2024-01-16T05:46:24;5.85;;;2.72;;
41233;SDS011;26968;42.686;23.352;2024-01-16T05:48:50;3.92;;;2.70;;
41233;SDS011;26968;42.686;23.352;2024-01-16T05:51:15;4.10;;;2.72;;
41233;SDS011;26968;42.686;23.352;2024-01-16T05:53:41;2.53;;;2.33;;
41233;SDS011;26968;42.686;23.352;2024-01-16T05:56:07;4.22;;;2.80;;
41233;SDS011;26968;42.686;23.352;2024-01-16T05:58:33;3.45;;;2.03;;
41233;SDS011;26968;42.686;23.352;2024-01-16T06:01:04;3.75;;;2.50;;
41233;SDS011;26968;42.686;23.352;2024-01-16T06:03:30;3.22;;;2.38;;
41233;SDS011;26968;42.686;23.352;2024-01-16T06:05:56;2.83;;;2.10;;
41233;SDS011;26968;42.686;23.352;2024-01-16T06:08:21;4.70;;;2.72;;
41233;SDS011;26968;42.686;23.352;2024-01-16T06:10:47;3.50;;;2.22;;
41233;SDS011;26968;42.686;23.352;2024-01-16T06:13:12;5.00;;;2.45;;
41233;SDS011;26968;42.686;23.352;2024-01-16T06:15:38;3.72;;;2.17;;
41233;SDS011;26968;42.686;23.352;2024-01-16T06:18:03;3.95;;;2.63;;
41233;SDS011;26968;42.686;23.352;2024-01-16T06:20:29;5.55;;;2.88;;
41233;SDS011;26968;42.686;23.352;2024-01-16T06:22:55;3.53;;;2.63;;
41233;SDS011;26968;42.686;23.352;2024-01-16T06:25:21;5.38;;;2.78;;
41233;SDS011;26968;42.686;23.352;2024-01-16T06:27:47;2.67;;;2.13;;
41233;SDS011;26968;42.686;23.352;2024-01-16T06:30:14;3.53;;;2.30;;
41233;SDS011;26968;42.686;23.352;2024-01-16T06:32:40;3.47;;;2.70;;
41233;SDS011;26968;42.686;23.352;2024-01-16T06:35:05;2.80;;;2.30;;
41233;SDS011;26968;42.686;23.352;2024-01-16T06:37:32;4.10;;;2.40;;
41233;SDS011;26968;42.686;23.352;2024-01-16T06:39:58;7.10;;;2.42;;
41233;SDS011;26968;42.686;23.352;2024-01-16T06:42:23;4.43;;;2.60;;
41233;SDS011;26968;42.686;23.352;2024-01-16T06:44:49;3.97;;;2.30;;
41233;SDS011;26968;42.686;23.352;2024-01-16T06:47:14;2.70;;;2.28;;
41233;SDS011;26968;42.686;23.352;2024-01-16T06:49:40;2.97;;;1.80;;
41233;SDS011;26968;42.686;23.352;2024-01-16T06:52:07;2.13;;;1.75;;
41233;SDS011;26968;42.686;23.352;2024-01-16T06:54:34;3.50;;;2.90;;
41233;SDS011;26968;42.686;23.352;2024-01-16T06:57:00;2.83;;;2.38;;
41233;SDS011;26968;42.686;23.352;2024-01-16T06:59:25;6.97;;;3.22;;
41233;SDS011;26968;42.686;23.352;2024-01-16T07:01:51;3.50;;;2.42;;
41233;SDS011;26968;42.686;23.352;2024-01-16T07:04:16;4.90;;;2.90;;
41233;SDS011;26968;42.686;23.352;2024-01-16T07:06:42;3.55;;;2.22;;
41233;SDS011;26968;42.686;23.352;2024-01-16T07:09:09;4.28;;;2.50;;
41233;SDS011;26968;42.686;23.352;2024-01-16T07:11:38;7.28;;;2.45;;
41233;SDS011;26968;42.686;23.352;2024-01-16T07:14:09;5.32;;;2.90;;
41233;SDS011;26968;42.686;23.352;2024-01-16T07:16:36;3.03;;;2.10;;
41233;SDS011;26968;42.686;23.352;2024-01-16T07:19:02;3.47;;;2.67;;
41233;SDS011;26968;42.686;23.352;2024-01-16T07:21:27;4.05;;;2.75;;
41233;SDS011;26968;42.686;23.352;2024-01-16T07:23:53;3.20;;;2.30;;
41233;SDS011;26968;42.686;23.352;2024-01-16T07:26:19;4.40;;;2.88;;
41233;SDS011;26968;42.686;23.352;2024-01-16T07:28:45;5.25;;;2.92;;
41233;SDS011;26968;42.686;23.352;2024-01-16T07:31:13;6.15;;;2.33;;
41233;SDS011;26968;42.686;23.352;2024-01-16T07:33:39;4.82;;;2.58;;
41233;SDS011;26968;42.686;23.352;2024-01-16T07:36:05;4.03;;;2.60;;
41233;SDS011;26968;42.686;23.352;2024-01-16T07:38:31;7.65;;;2.90;;
41233;SDS011;26968;42.686;23.352;2024-01-16T07:40:57;6.40;;;2.75;;
41233;SDS011;26968;42.686;23.352;2024-01-16T07:43:26;6.63;;;3.03;;
41233;SDS011;26968;42.686;23.352;2024-01-16T07:45:52;4.10;;;2.53;;
41233;SDS011;26968;42.686;23.352;2024-01-16T07:48:17;3.65;;;2.60;;
41233;SDS011;26968;42.686;23.352;2024-01-16T07:50:43;3.75;;;2.70;;
41233;SDS011;26968;42.686;23.352;2024-01-16T07:53:11;6.63;;;2.60;;
41233;SDS011;26968;42.686;23.352;2024-01-16T07:55:36;5.45;;;3.22;;
41233;SDS011;26968;42.686;23.352;2024-01-16T07:58:02;5.55;;;3.78;;
41233;SDS011;26968;42.686;23.352;2024-01-16T08:00:31;5.30;;;3.22;;
41233;SDS011;26968;42.686;23.352;2024-01-16T08:02:57;6.70;;;3.25;;
41233;SDS011;26968;42.686;23.352;2024-01-16T08:05:22;10.68;;;2.60;;
41233;SDS011;26968;42.686;23.352;2024-01-16T08:07:51;3.70;;;2.30;;
41233;SDS011;26968;42.686;23.352;2024-01-16T08:10:16;6.05;;;2.67;;
41233;SDS011;26968;42.686;23.352;2024-01-16T08:12:42;4.00;;;2.20;;
41233;SDS011;26968;42.686;23.352;2024-01-16T08:15:08;2.97;;;2.20;;
41233;SDS011;26968;42.686;23.352;2024-01-16T08:17:34;4.68;;;2.55;;
41233;SDS011;26968;42.686;23.352;2024-01-16T08:20:00;2.72;;;2.00;;
41233;SDS011;26968;42.686;23.352;2024-01-16T08:22:25;7.57;;;2.35;;
41233;SDS011;26968;42.686;23.352;2024-01-16T08:24:51;7.43;;;2.75;;
41233;SDS011;26968;42.686;23.352;2024-01-16T08:27:16;3.75;;;2.53;;
41233;SDS011;26968;42.686;23.352;2024-01-16T08:29:42;4.35;;;2.50;;
41233;SDS011;26968;42.686;23.352;2024-01-16T08:32:08;5.97;;;2.70;;
41233;SDS011;26968;42.686;23.352;2024-01-16T08:34:33;8.95;;;3.42;;
41233;SDS011;26968;42.686;23.352;2024-01-16T08:36:59;9.90;;;3.00;;
41233;SDS011;26968;42.686;23.352;2024-01-16T08:39:25;4.53;;;2.88;;
41233;SDS011;26968;42.686;23.352;2024-01-16T08:41:52;6.32;;;3.38;;
41233;SDS011;26968;42.686;23.352;2024-01-16T08:44:18;9.00;;;3.78;;
41233;SDS011;26968;42.686;23.352;2024-01-16T08:46:43;6.13;;;2.75;;
41233;SDS011;26968;42.686;23.352;2024-01-16T08:49:09;5.53;;;2.88;;
41233;SDS011;26968;42.686;23.352;2024-01-16T08:51:36;3.83;;;2.72;;
41233;SDS011;26968;42.686;23.352;2024-01-16T08:54:05;5.85;;;3.45;;
41233;SDS011;26968;42.686;23.352;2024-01-16T08:56:31;10.43;;;3.30;;
41233;SDS011;26968;42.686;23.352;2024-01-16T08:58:58;11.30;;;3.80;;
41233;SDS011;26968;42.686;23.352;2024-01-16T09:01:23;8.50;;;3.80;;
41233;SDS011;26968;42.686;23.352;2024-01-16T09:03:49;4.13;;;2.78;;
41233;SDS011;26968;42.686;23.352;2024-01-16T09:06:14;15.45;;;3.17;;
41233;SDS011;26968;42.686;23.352;2024-01-16T09:08:40;9.45;;;3.10;;
41233;SDS011;26968;42.686;23.352;2024-01-16T09:11:06;12.23;;;3.33;;
41233;SDS011;26968;42.686;23.352;2024-01-16T09:13:31;8.25;;;3.08;;
41233;SDS011;26968;42.686;23.352;2024-01-16T09:15:57;6.57;;;3.40;;
41233;SDS011;26968;42.686;23.352;2024-01-16T09:18:25;12.48;;;3.03;;
41233;SDS011;26968;42.686;23.352;2024-01-16T09:20:51;6.97;;;3.00;;
41233;SDS011;26968;42.686;23.352;2024-01-16T09:23:16;9.70;;;3.05;;
41233;SDS011;26968;42.686;23.352;2024-01-16T09:25:42;9.68;;;2.30;;
41233;SDS011;26968;42.686;23.352;2024-01-16T09:28:07;10.93;;;3.40;;
41233;SDS011;26968;42.686;23.352;2024-01-16T09:30:33;6.40;;;3.25;;
41233;SDS011;26968;42.686;23.352;2024-01-16T09:32:58;13.98;;;3.72;;
41233;SDS011;26968;42.686;23.352;2024-01-16T09:35:26;8.05;;;2.47;;
41233;SDS011;26968;42.686;23.352;2024-01-16T09:37:51;7.80;;;2.80;;
41233;SDS011;26968;42.686;23.352;2024-01-16T09:40:20;4.18;;;2.75;;
41233;SDS011;26968;42.686;23.352;2024-01-16T09:42:45;4.50;;;2.60;;
41233;SDS011;26968;42.686;23.352;2024-01-16T09:45:11;12.48;;;3.13;;
41233;SDS011;26968;42.686;23.352;2024-01-16T09:50:08;7.45;;;2.67;;
41233;SDS011;26968;42.686;23.352;2024-01-16T09:52:35;11.05;;;2.95;;
41233;SDS011;26968;42.686;23.352;2024-01-16T09:55:04;5.55;;;2.88;;
41233;SDS011;26968;42.686;23.352;2024-01-16T09:57:30;4.40;;;2.35;;
41233;SDS011;26968;42.686;23.352;2024-01-16T09:59:57;5.63;;;2.78;;
41233;SDS011;26968;42.686;23.352;2024-01-16T10:02:25;5.05;;;3.08;;
41233;SDS011;26968;42.686;23.352;2024-01-16T10:04:50;9.98;;;2.88;;
41233;SDS011;26968;42.686;23.352;2024-01-16T10:07:16;10.50;;;2.70;;
41233;SDS011;26968;42.686;23.352;2024-01-16T10:09:44;4.35;;;2.45;;
41233;SDS011;26968;42.686;23.352;2024-01-16T10:12:09;9.45;;;2.33;;
41233;SDS011;26968;42.686;23.352;2024-01-16T10:14:36;6.18;;;2.70;;
41233;SDS011;26968;42.686;23.352;2024-01-16T10:17:04;7.25;;;3.75;;
41233;SDS011;26968;42.686;23.352;2024-01-16T10:19:50;11.90;;;3.42;;
41233;SDS011;26968;42.686;23.352;2024-01-16T10:22:25;8.45;;;2.97;;
41233;SDS011;26968;42.686;23.352;2024-01-16T10:25:12;6.50;;;2.78;;
41233;SDS011;26968;42.686;23.352;2024-01-16T10:27:38;5.47;;;3.22;;
41233;SDS011;26968;42.686;23.352;2024-01-16T10:30:05;6.47;;;2.88;;
41233;SDS011;26968;42.686;23.352;2024-01-16T10:32:35;9.43;;;3.42;;
41233;SDS011;26968;42.686;23.352;2024-01-16T10:35:06;6.32;;;3.03;;
41233;SDS011;26968;42.686;23.352;2024-01-16T10:40:30;6.20;;;2.72;;
41233;SDS011;26968;42.686;23.352;2024-01-16T10:42:57;8.25;;;2.90;;
41233;SDS011;26968;42.686;23.352;2024-01-16T10:45:23;12.75;;;3.00;;
41233;SDS011;26968;42.686;23.352;2024-01-16T10:48:04;6.47;;;2.47;;
41233;SDS011;26968;42.686;23.352;2024-01-16T10:50:31;11.80;;;3.30;;
41233;SDS011;26968;42.686;23.352;2024-01-16T10:53:05;4.65;;;2.50;;
41233;SDS011;26968;42.686;23.352;2024-01-16T10:55:34;7.80;;;2.75;;
41233;SDS011;26968;42.686;23.352;2024-01-16T10:58:08;10.48;;;2.45;;
41233;SDS011;26968;42.686;23.352;2024-01-16T11:00:37;10.18;;;2.85;;
41233;SDS011;26968;42.686;23.352;2024-01-16T11:03:05;7.15;;;2.55;;
41233;SDS011;26968;42.686;23.352;2024-01-16T11:05:32;5.05;;;2.20;;
41233;SDS011;26968;42.686;23.352;2024-01-16T11:07:59;8.18;;;2.40;;
41233;SDS011;26968;42.686;23.352;2024-01-16T11:10:30;5.00;;;2.75;;
41233;SDS011;26968;42.686;23.352;2024-01-16T11:12:59;6.30;;;3.33;;
41233;SDS011;26968;42.686;23.352;2024-01-16T11:15:27;4.88;;;2.92;;
41233;SDS011;26968;42.686;23.352;2024-01-16T11:17:59;4.15;;;2.75;;
41233;SDS011;26968;42.686;23.352;2024-01-16T11:20:26;9.25;;;2.97;;
41233;SDS011;26968;42.686;23.352;2024-01-16T11:22:53;7.20;;;3.55;;
41233;SDS011;26968;42.686;23.352;2024-01-16T11:25:33;7.20;;;3.42;;
41233;SDS011;26968;42.686;23.352;2024-01-16T11:30:57;4.13;;;2.50;;
41233;SDS011;26968;42.686;23.352;2024-01-16T11:35:59;4.65;;;2.75;;
41233;SDS011;26968;42.686;23.352;2024-01-16T11:38:25;9.65;;;4.22;;
41233;SDS011;26968;42.686;23.352;2024-01-16T11:40:52;7.30;;;4.10;;
41233;SDS011;26968;42.686;23.352;2024-01-16T11:45:56;7.07;;;2.67;;
41233;SDS011;26968;42.686;23.352;2024-01-16T11:48:23;6.57;;;3.15;;
41233;SDS011;26968;42.686;23.352;2024-01-16T11:50:50;7.85;;;3.25;;
41233;SDS011;26968;42.686;23.352;2024-01-16T11:53:35;5.28;;;3.25;;
41233;SDS011;26968;42.686;23.352;2024-01-16T12:01:38;4.97;;;2.97;;
41233;SDS011;26968;42.686;23.352;2024-01-16T12:04:07;4.60;;;3.10;;
41233;SDS011;26968;42.686;23.352;2024-01-16T12:06:35;5.60;;;3.05;;
41233;SDS011;26968;42.686;23.352;2024-01-16T12:09:15;6.22;;;3.40;;
41233;SDS011;26968;42.686;23.352;2024-01-16T12:11:43;9.88;;;3.17;;
41233;SDS011;26968;42.686;23.352;2024-01-16T12:14:12;8.07;;;3.75;;
41233;SDS011;26968;42.686;23.352;2024-01-16T12:16:37;8.52;;;4.13;;
41233;SDS011;26968;42.686;23.352;2024-01-16T12:19:06;7.70;;;3.50;;
41233;SDS011;26968;42.686;23.352;2024-01-16T12:21:39;8.07;;;3.83;;
41233;SDS011;26968;42.686;23.352;2024-01-16T12:24:07;9.98;;;3.85;;
41233;SDS011;26968;42.686;23.352;2024-01-16T12:26:33;8.10;;;3.67;;
41233;SDS011;26968;42.686;23.352;2024-01-16T12:28:59;9.32;;;3.38;;
41233;SDS011;26968;42.686;23.352;2024-01-16T12:31:25;10.48;;;3.22;;
41233;SDS011;26968;42.686;23.352;2024-01-16T12:33:51;8.00;;;3.20;;
41233;SDS011;26968;42.686;23.352;2024-01-16T12:36:17;8.55;;;3.17;;
41233;SDS011;26968;42.686;23.352;2024-01-16T12:38:43;12.05;;;3.28;;
41233;SDS011;26968;42.686;23.352;2024-01-16T12:41:20;11.10;;;4.00;;
41233;SDS011;26968;42.686;23.352;2024-01-16T12:43:48;6.78;;;3.58;;
41233;SDS011;26968;42.686;23.352;2024-01-16T12:46:17;5.78;;;3.05;;
41233;SDS011;26968;42.686;23.352;2024-01-16T12:48:44;7.40;;;3.15;;
41233;SDS011;26968;42.686;23.352;2024-01-16T12:51:20;8.07;;;3.15;;
41233;SDS011;26968;42.686;23.352;2024-01-16T12:53:52;4.55;;;2.90;;
41233;SDS011;26968;42.686;23.352;2024-01-16T13:04:30;3.88;;;2.42;;
41233;SDS011;26968;42.686;23.352;2024-01-16T13:07:05;7.82;;;3.75;;
41233;SDS011;26968;42.686;23.352;2024-01-16T13:09:31;8.57;;;4.00;;
41233;SDS011;26968;42.686;23.352;2024-01-16T13:12:00;11.90;;;3.78;;
41233;SDS011;26968;42.686;23.352;2024-01-16T13:14:26;8.40;;;3.55;;
41233;SDS011;26968;42.686;23.352;2024-01-16T13:16:51;6.88;;;2.72;;
41233;SDS011;26968;42.686;23.352;2024-01-16T13:19:20;6.18;;;2.90;;
41233;SDS011;26968;42.686;23.352;2024-01-16T13:21:46;9.20;;;3.67;;
41233;SDS011;26968;42.686;23.352;2024-01-16T13:24:12;9.32;;;3.58;;
41233;SDS011;26968;42.686;23.352;2024-01-16T13:26:39;6.45;;;3.58;;
41233;SDS011;26968;42.686;23.352;2024-01-16T13:29:05;8.40;;;3.80;;
41233;SDS011;26968;42.686;23.352;2024-01-16T13:31:31;9.40;;;3.58;;
41233;SDS011;26968;42.686;23.352;2024-01-16T13:33:57;6.30;;;3.40;;
41233;SDS011;26968;42.686;23.352;2024-01-16T13:36:23;15.10;;;4.35;;
41233;SDS011;26968;42.686;23.352;2024-01-16T13:38:48;14.52;;;3.85;;
41233;SDS011;26968;42.686;23.352;2024-01-16T13:41:15;8.38;;;3.75;;
41233;SDS011;26968;42.686;23.352;2024-01-16T13:43:42;12.90;;;3.75;;
41233;SDS011;26968;42.686;23.352;2024-01-16T13:46:08;15.88;;;3.47;;
41233;SDS011;26968;42.686;23.352;2024-01-16T13:48:35;7.55;;;3.63;;
41233;SDS011;26968;42.686;23.352;2024-01-16T13:51:01;12.52;;;4.18;;
41233;SDS011;26968;42.686;23.352;2024-01-16T13:53:53;12.90;;;4.03;;
41233;SDS011;26968;42.686;23.352;2024-01-16T13:56:18;9.10;;;4.13;;
41233;SDS011;26968;42.686;23.352;2024-01-16T13:58:44;10.15;;;4.72;;
41233;SDS011;26968;42.686;23.352;2024-01-16T14:01:10;12.40;;;4.22;;
41233;SDS011;26968;42.686;23.352;2024-01-16T14:03:36;7.10;;;3.17;;
41233;SDS011;26968;42.686;23.352;2024-01-16T14:06:12;11.05;;;4.43;;
41233;SDS011;26968;42.686;23.352;2024-01-16T14:08:38;4.80;;;3.15;;
41233;SDS011;26968;42.686;23.352;2024-01-16T14:11:07;6.07;;;3.85;;
41233;SDS011;26968;42.686;23.352;2024-01-16T14:13:33;11.80;;;3.75;;
41233;SDS011;26968;42.686;23.352;2024-01-16T14:15:58;6.65;;;3.15;;
41233;SDS011;26968;42.686;23.352;2024-01-16T14:18:24;12.27;;;3.75;;
41233;SDS011;26968;42.686;23.352;2024-01-16T14:20:49;9.45;;;3.47;;
41233;SDS011;26968;42.686;23.352;2024-01-16T14:23:15;6.93;;;3.55;;
41233;SDS011;26968;42.686;23.352;2024-01-16T14:25:40;6.88;;;3.67;;
41233;SDS011;26968;42.686;23.352;2024-01-16T14:28:06;8.90;;;3.95;;
41233;SDS011;26968;42.686;23.352;2024-01-16T14:30:32;9.27;;;3.60;;
41233;SDS011;26968;42.686;23.352;2024-01-16T14:32:58;5.18;;;3.30;;
41233;SDS011;26968;42.686;23.352;2024-01-16T14:35:24;7.72;;;3.15;;
41233;SDS011;26968;42.686;23.352;2024-01-16T14:37:53;10.85;;;3.90;;
41233;SDS011;26968;42.686;23.352;2024-01-16T14:40:19;6.38;;;3.40;;
41233;SDS011;26968;42.686;23.352;2024-01-16T14:42:51;5.82;;;3.35;;
41233;SDS011;26968;42.686;23.352;2024-01-16T14:45:24;7.38;;;3.95;;
41233;SDS011;26968;42.686;23.352;2024-01-16T14:47:56;5.97;;;3.95;;
41233;SDS011;26968;42.686;23.352;2024-01-16T14:50:22;6.50;;;4.28;;